createdAt,value
2019-02-11T00:01:49.919Z,1.80
2019-02-11T00:04:18.918Z,1.92
2019-02-11T00:06:47.891Z,1.70
2019-02-11T00:09:16.859Z,1.90
2019-02-11T00:11:45.847Z,2.58
2019-02-11T00:14:14.805Z,2.50
2019-02-11T00:16:43.757Z,2.98
2019-02-11T00:19:12.756Z,4.08
2019-02-11T00:21:41.705Z,3.85
2019-02-11T00:24:10.681Z,3.80
2019-02-11T00:26:39.657Z,3.83
2019-02-11T00:29:08.614Z,3.67
2019-02-11T00:31:37.588Z,5.08
2019-02-11T00:34:06.587Z,6.80
2019-02-11T00:36:35.542Z,6.90
2019-02-11T00:39:05.306Z,8.98
2019-02-11T00:41:34.297Z,8.65
2019-02-11T00:44:03.291Z,6.97
2019-02-11T00:46:32.248Z,9.20
2019-02-11T00:49:01.261Z,11.12
2019-02-11T00:51:30.236Z,10.03
2019-02-11T00:53:59.212Z,12.90
2019-02-11T00:56:28.216Z,14.60
2019-02-11T00:58:57.184Z,14.53
2019-02-11T01:01:26.153Z,13.50
2019-02-11T01:03:55.170Z,8.90
2019-02-11T01:06:24.131Z,12.93
2019-02-11T01:08:53.109Z,12.85
2019-02-11T01:11:22.159Z,12.20
2019-02-11T01:13:51.639Z,16.57
2019-02-11T01:16:20.759Z,13.13
2019-02-11T01:18:49.769Z,12.33
2019-02-11T01:21:18.723Z,9.90
2019-02-11T01:23:47.680Z,13.85
2019-02-11T01:26:16.687Z,15.93
2019-02-11T01:28:45.638Z,10.90
2019-02-11T01:31:14.600Z,12.13
2019-02-11T01:33:43.598Z,13.28
2019-02-11T01:36:12.577Z,16.48
2019-02-11T01:38:41.536Z,14.53
2019-02-11T01:41:10.522Z,14.85
2019-02-11T01:43:40.594Z,13.43
2019-02-11T01:46:09.574Z,16.00
2019-02-11T01:48:38.539Z,13.38
2019-02-11T01:51:07.512Z,11.95
2019-02-11T01:53:36.502Z,11.35
2019-02-11T01:56:05.492Z,14.75
2019-02-11T01:58:34.528Z,8.95
2019-02-11T02:01:03.511Z,17.73
2019-02-11T02:03:32.486Z,14.40
2019-02-11T02:06:01.442Z,13.75
2019-02-11T02:08:30.418Z,15.32
2019-02-11T02:10:59.383Z,12.10
2019-02-11T02:13:28.363Z,15.35
2019-02-11T02:15:57.331Z,15.63
2019-02-11T02:18:26.315Z,15.32
2019-02-11T02:20:55.299Z,16.70
2019-02-11T02:23:24.301Z,10.72
2019-02-11T02:25:53.281Z,14.50
2019-02-11T02:28:22.280Z,10.50
2019-02-11T02:30:51.258Z,12.40
2019-02-11T02:33:20.278Z,10.80
2019-02-11T02:35:49.240Z,13.85
2019-02-11T02:38:18.236Z,14.10
2019-02-11T02:40:47.202Z,12.93
2019-02-11T02:43:16.177Z,12.50
2019-02-11T02:45:45.140Z,16.30
2019-02-11T02:48:14.130Z,15.05
2019-02-11T02:50:43.092Z,19.67
2019-02-11T02:53:12.067Z,14.95
2019-02-11T02:55:41.047Z,21.35
2019-02-11T02:58:10.029Z,16.42
2019-02-11T03:00:39.034Z,16.02
2019-02-11T03:03:08.020Z,10.05
2019-02-11T03:05:36.987Z,14.65
2019-02-11T03:08:05.975Z,13.65
2019-02-11T03:10:34.945Z,16.45
2019-02-11T03:13:03.927Z,9.98
2019-02-11T03:15:32.931Z,10.43
2019-02-11T03:18:01.896Z,12.35
2019-02-11T03:20:30.851Z,14.35
2019-02-11T03:22:59.837Z,13.68
2019-02-11T03:25:28.835Z,13.38
2019-02-11T03:27:57.803Z,13.30
2019-02-11T03:30:26.812Z,14.95
2019-02-11T03:32:55.772Z,14.18
2019-02-11T03:35:24.760Z,9.20
2019-02-11T03:37:53.751Z,7.37
2019-02-11T03:40:22.741Z,9.38
2019-02-11T03:42:51.705Z,11.10
2019-02-11T03:45:20.703Z,11.73
2019-02-11T03:47:49.685Z,12.45
2019-02-11T03:50:18.694Z,17.37
2019-02-11T03:52:47.700Z,13.60
2019-02-11T03:55:16.671Z,11.20
2019-02-11T03:57:45.663Z,12.20
2019-02-11T04:00:14.669Z,14.47
2019-02-11T04:02:43.638Z,15.15
2019-02-11T04:05:12.603Z,13.25
2019-02-11T04:07:41.591Z,10.13
2019-02-11T04:10:10.627Z,11.40
2019-02-11T04:12:39.571Z,17.25
2019-02-11T04:15:08.614Z,11.40
2019-02-11T04:17:37.585Z,12.82
2019-02-11T04:20:06.685Z,12.85
2019-02-11T04:22:35.701Z,12.58
2019-02-11T04:25:04.695Z,11.12
2019-02-11T04:27:33.667Z,10.30
2019-02-11T04:30:02.662Z,10.00
2019-02-11T04:32:31.639Z,14.63
2019-02-11T04:35:00.632Z,13.28
2019-02-11T04:37:29.612Z,15.13
2019-02-11T04:39:58.581Z,10.90
2019-02-11T04:42:27.750Z,11.22
2019-02-11T04:44:56.736Z,18.35
2019-02-11T04:47:25.744Z,14.10
2019-02-11T04:49:54.730Z,13.70
2019-02-11T04:52:23.716Z,10.72
2019-02-11T04:54:52.687Z,12.90
2019-02-11T04:57:21.786Z,13.00
2019-02-11T04:59:50.771Z,13.85
2019-02-11T05:02:19.744Z,9.98
2019-02-11T05:04:48.703Z,10.35
2019-02-11T05:07:17.705Z,15.70
2019-02-11T05:09:46.684Z,9.60
2019-02-11T05:12:15.654Z,10.20
2019-02-11T05:14:44.653Z,9.13
2019-02-11T05:17:13.642Z,9.25
2019-02-11T05:19:42.626Z,11.75
2019-02-11T05:22:11.692Z,15.98
2019-02-11T05:24:40.666Z,12.37
2019-02-11T05:27:09.645Z,13.90
2019-02-11T05:29:38.631Z,9.88
2019-02-11T05:32:07.599Z,11.60
2019-02-11T05:34:36.589Z,10.15
2019-02-11T05:37:05.568Z,10.50
2019-02-11T05:39:34.575Z,7.37
2019-02-11T05:42:03.657Z,11.00
2019-02-11T05:44:32.610Z,8.85
2019-02-11T05:47:01.637Z,10.93
2019-02-11T05:49:30.606Z,8.88
2019-02-11T05:51:59.630Z,8.88
2019-02-11T05:54:28.640Z,10.23
2019-02-11T05:56:57.606Z,11.65
2019-02-11T05:59:26.606Z,10.65
2019-02-11T06:01:55.629Z,15.30
2019-02-11T06:04:24.587Z,10.18
2019-02-11T06:06:53.726Z,8.58
2019-02-11T06:09:23.235Z,9.68
2019-02-11T06:11:52.569Z,10.45
2019-02-11T06:14:21.570Z,12.07
2019-02-11T06:16:50.532Z,9.95
2019-02-11T06:19:19.540Z,15.63
2019-02-11T06:21:48.520Z,13.72
2019-02-11T06:24:17.629Z,10.63
2019-02-11T06:26:46.613Z,11.48
2019-02-11T06:29:15.597Z,14.98
2019-02-11T06:31:44.594Z,9.03
2019-02-11T06:34:13.569Z,8.03
2019-02-11T06:36:42.544Z,10.15
2019-02-11T06:39:11.525Z,10.78
2019-02-11T06:41:40.485Z,14.85
2019-02-11T06:44:09.493Z,11.53
2019-02-11T06:46:38.472Z,6.72
2019-02-11T06:49:07.454Z,12.47
2019-02-11T06:51:36.464Z,11.50
2019-02-11T06:54:05.449Z,11.05
2019-02-11T06:56:34.425Z,9.25
2019-02-11T06:59:03.422Z,15.00
2019-02-11T07:01:32.386Z,12.15
2019-02-11T07:04:01.373Z,11.43
2019-02-11T07:06:30.360Z,11.93
2019-02-11T07:08:59.366Z,14.03
2019-02-11T07:11:28.359Z,12.68
2019-02-11T07:13:57.326Z,8.45
2019-02-11T07:16:26.336Z,15.20
2019-02-11T07:18:55.322Z,12.75
2019-02-11T07:21:24.314Z,8.30
2019-02-11T07:23:53.314Z,11.83
2019-02-11T07:26:22.302Z,11.90
2019-02-11T07:28:51.248Z,9.35
2019-02-11T07:31:20.259Z,16.50
2019-02-11T07:33:49.220Z,11.78
2019-02-11T07:36:18.208Z,10.75
2019-02-11T07:38:47.524Z,8.55
2019-02-11T07:41:16.583Z,15.38
2019-02-11T07:43:52.397Z,10.95
2019-02-11T07:46:28.675Z,13.40
2019-02-11T07:48:57.679Z,13.95
2019-02-11T07:51:26.657Z,10.25
2019-02-11T07:53:55.641Z,9.50
2019-02-11T07:56:24.663Z,7.28
2019-02-11T07:58:53.666Z,7.30
2019-02-11T08:01:22.643Z,6.03
2019-02-11T08:03:51.633Z,6.25
2019-02-11T08:06:20.619Z,9.10
2019-02-11T08:08:49.599Z,11.70
2019-02-11T08:11:18.597Z,7.65
2019-02-11T08:13:47.600Z,8.85
2019-02-11T08:16:16.606Z,7.30
2019-02-11T08:18:45.596Z,11.45
2019-02-11T08:21:14.574Z,12.00
2019-02-11T08:23:44.084Z,14.65
2019-02-11T08:26:13.100Z,11.70
2019-02-11T08:28:42.226Z,15.93
2019-02-11T08:31:11.308Z,12.75
2019-02-11T08:33:40.350Z,15.48
2019-02-11T08:36:09.385Z,8.05
2019-02-11T08:38:38.557Z,8.70
2019-02-11T08:41:07.822Z,9.03
2019-02-11T08:43:37.006Z,8.78
2019-02-11T08:46:05.974Z,12.30
2019-02-11T08:48:34.966Z,11.05
2019-02-11T08:51:03.935Z,8.38
2019-02-11T08:53:32.913Z,10.35
2019-02-11T08:56:03.385Z,8.53
2019-02-11T08:58:32.521Z,7.47
2019-02-11T09:01:02.663Z,9.15
2019-02-11T09:03:31.651Z,7.55
2019-02-11T09:06:00.657Z,8.88
2019-02-11T09:08:29.651Z,9.03
2019-02-11T09:10:58.621Z,9.15
2019-02-11T09:13:27.601Z,8.18
2019-02-11T09:15:56.622Z,10.40
2019-02-11T09:18:25.578Z,8.10
2019-02-11T09:20:54.595Z,7.05
2019-02-11T09:23:23.589Z,7.87
2019-02-11T09:25:52.558Z,5.45
2019-02-11T09:28:21.596Z,3.87
2019-02-11T09:30:50.580Z,4.70
2019-02-11T09:33:19.550Z,6.95
2019-02-11T09:35:48.546Z,11.65
2019-02-11T09:38:17.544Z,16.25
2019-02-11T09:40:46.578Z,8.43
2019-02-11T09:43:15.546Z,10.82
2019-02-11T09:45:44.543Z,15.03
2019-02-11T09:48:13.502Z,12.20
2019-02-11T09:50:44.931Z,13.13
2019-02-11T09:53:13.938Z,14.25
2019-02-11T09:55:42.911Z,10.63
2019-02-11T09:58:11.913Z,16.85
2019-02-11T10:00:40.905Z,14.87
2019-02-11T10:03:09.907Z,12.03
2019-02-11T10:05:38.886Z,11.63
2019-02-11T10:08:07.870Z,10.80
2019-02-11T10:10:36.887Z,10.45
2019-02-11T10:13:05.881Z,10.40
2019-02-11T10:15:34.884Z,14.53
2019-02-11T10:18:03.870Z,8.88
2019-02-11T10:20:32.847Z,12.28
2019-02-11T10:23:02.403Z,12.25
2019-02-11T10:25:31.388Z,12.03
2019-02-11T10:28:03.310Z,14.33
2019-02-11T10:30:32.298Z,13.98
2019-02-11T10:33:01.279Z,15.98
2019-02-11T10:35:30.278Z,13.85
2019-02-11T10:37:59.312Z,13.55
2019-02-11T10:40:28.312Z,16.00
2019-02-11T10:42:57.322Z,11.18
2019-02-11T10:45:26.330Z,15.72
2019-02-11T10:47:55.305Z,11.10
2019-02-11T10:50:24.346Z,11.50
2019-02-11T10:52:53.330Z,7.97
2019-02-11T10:55:22.348Z,12.65
2019-02-11T10:57:51.353Z,13.93
2019-02-11T11:00:21.954Z,15.18
2019-02-11T11:02:50.953Z,13.40
2019-02-11T11:05:20.043Z,13.10
2019-02-11T11:07:49.068Z,10.48
2019-02-11T11:10:24.083Z,12.15
2019-02-11T11:12:53.113Z,14.47
2019-02-11T11:15:22.109Z,14.43
2019-02-11T11:17:51.087Z,11.95
2019-02-11T11:20:20.109Z,15.25
2019-02-11T11:22:49.177Z,13.48
2019-02-11T11:25:18.249Z,16.50
2019-02-11T11:27:47.247Z,15.18
2019-02-11T11:30:18.328Z,12.55
2019-02-11T11:32:46.996Z,13.85
2019-02-11T11:35:16.074Z,12.28
2019-02-11T11:37:45.066Z,13.58
2019-02-11T11:40:15.559Z,13.75
2019-02-11T11:42:44.588Z,16.05
2019-02-11T11:45:15.501Z,13.55
2019-02-11T11:47:44.527Z,13.28
2019-02-11T11:50:13.564Z,12.00
2019-02-11T11:52:42.550Z,14.85
2019-02-11T11:55:12.751Z,10.55
2019-02-11T11:57:41.758Z,9.08
2019-02-11T12:00:18.738Z,13.05
2019-02-11T12:03:00.595Z,13.05
2019-02-11T12:05:18.566Z,14.23
2019-02-11T12:07:47.584Z,8.93
2019-02-11T12:10:16.616Z,13.98
2019-02-11T12:12:45.629Z,16.12
2019-02-11T12:15:14.935Z,15.28
2019-02-11T12:17:44.379Z,15.40
2019-02-11T12:20:13.485Z,12.53
2019-02-11T12:22:42.475Z,12.07
2019-02-11T12:25:12.829Z,15.72
2019-02-11T12:27:41.848Z,11.28
2019-02-11T12:30:13.733Z,9.28
2019-02-11T12:32:43.178Z,15.88
2019-02-11T12:35:12.962Z,9.88
2019-02-11T12:37:42.126Z,7.87
2019-02-11T12:40:11.194Z,11.22
2019-02-11T12:42:40.286Z,7.67
2019-02-11T12:45:12.003Z,12.75
2019-02-11T12:47:41.019Z,12.33
2019-02-11T12:50:10.804Z,11.28
2019-02-11T12:52:40.376Z,6.87
2019-02-11T12:55:10.535Z,11.33
2019-02-11T12:57:39.525Z,13.75
2019-02-11T13:00:18.947Z,7.87
2019-02-11T13:02:48.161Z,14.23
2019-02-11T13:05:21.451Z,19.10
2019-02-11T13:07:47.962Z,15.18
2019-02-11T13:10:17.915Z,22.70
2019-02-11T13:12:46.889Z,13.08
2019-02-11T13:15:34.717Z,14.43
2019-02-11T13:17:46.755Z,13.58
2019-02-11T13:20:15.867Z,12.03
2019-02-11T13:22:44.866Z,12.85
2019-02-11T13:25:14.563Z,11.83
2019-02-11T13:27:43.603Z,12.00
2019-02-11T13:30:18.728Z,14.20
2019-02-11T13:32:47.717Z,14.60
2019-02-11T13:35:16.707Z,12.78
2019-02-11T13:37:45.747Z,15.40
2019-02-11T13:40:14.805Z,12.37
2019-02-11T13:42:43.943Z,17.70
2019-02-11T13:45:14.893Z,10.55
2019-02-11T13:47:53.930Z,16.02
2019-02-11T13:50:19.201Z,16.20
2019-02-11T13:52:48.195Z,14.55
2019-02-11T13:55:17.225Z,13.78
2019-02-11T13:57:46.232Z,11.65
2019-02-11T14:00:21.665Z,12.53
2019-02-11T14:02:54.784Z,14.18
2019-02-11T14:05:23.906Z,13.48
2019-02-11T14:07:52.903Z,15.65
2019-02-11T14:10:21.925Z,11.18
2019-02-11T14:12:51.032Z,13.10
2019-02-11T14:15:21.436Z,13.05
2019-02-11T14:18:09.332Z,15.15
2019-02-11T14:20:23.207Z,14.78
2019-02-11T14:22:52.194Z,12.93
2019-02-11T14:25:39.258Z,10.38
2019-02-11T14:27:51.908Z,12.33
2019-02-11T14:30:21.489Z,11.85
2019-02-11T14:32:50.946Z,12.75
2019-02-11T14:35:20.218Z,11.63
2019-02-11T14:37:49.240Z,11.70
2019-02-11T14:40:19.432Z,11.48
2019-02-11T14:42:48.506Z,18.50
2019-02-11T14:45:17.628Z,13.75
2019-02-11T14:47:46.652Z,19.62
2019-02-11T14:50:15.730Z,21.52
2019-02-11T14:52:45.485Z,12.53
2019-02-11T14:55:14.511Z,16.27
2019-02-11T14:57:43.548Z,16.15
2019-02-11T15:00:19.729Z,14.20
2019-02-11T15:02:48.771Z,18.42
2019-02-11T15:05:17.892Z,14.10
2019-02-11T15:07:47.080Z,11.30
2019-02-11T15:10:19.488Z,17.10
2019-02-11T15:12:46.860Z,14.07
2019-02-11T15:15:15.962Z,15.93
2019-02-11T15:17:44.966Z,17.57
2019-02-11T15:20:14.770Z,16.93
2019-02-11T15:22:43.755Z,14.20
2019-02-11T15:25:14.492Z,23.12
2019-02-11T15:27:43.581Z,25.08
2019-02-11T15:30:18.358Z,20.17
2019-02-11T15:35:15.593Z,16.60
2019-02-11T15:37:44.671Z,16.42
2019-02-11T15:40:15.863Z,19.07
2019-02-11T15:42:45.113Z,15.32
2019-02-11T15:45:14.778Z,11.90
2019-02-11T15:47:44.097Z,17.02
2019-02-11T15:50:13.752Z,11.83
2019-02-11T15:52:42.734Z,15.83
2019-02-11T15:55:16.532Z,16.67
2019-02-11T15:57:45.562Z,17.27
2019-02-11T16:00:19.246Z,13.43
2019-02-11T16:02:48.241Z,19.30
2019-02-11T16:05:17.410Z,18.45
2019-02-11T16:07:46.478Z,15.15
2019-02-11T16:10:18.738Z,15.55
2019-02-11T16:12:47.769Z,13.45
2019-02-11T16:15:16.813Z,14.95
2019-02-11T16:17:45.896Z,19.02
2019-02-11T16:20:15.058Z,14.23
2019-02-11T16:22:44.081Z,23.32
2019-02-11T16:25:13.162Z,16.30
2019-02-11T16:27:42.155Z,16.85
2019-02-11T16:30:15.852Z,20.27
2019-02-11T16:32:44.828Z,17.55
2019-02-11T16:35:14.529Z,13.62
2019-02-11T16:37:43.725Z,14.85
2019-02-11T16:40:20.718Z,15.68
2019-02-11T16:42:49.792Z,20.17
2019-02-11T16:45:18.791Z,24.18
2019-02-11T16:47:47.893Z,22.17
2019-02-11T16:50:17.044Z,17.27
2019-02-11T16:52:46.521Z,15.35
2019-02-11T16:55:15.789Z,14.33
2019-02-11T16:57:45.052Z,15.85
2019-02-11T17:00:15.974Z,23.50
2019-02-11T17:02:45.127Z,14.55
2019-02-11T17:05:14.312Z,14.00
2019-02-11T17:07:43.679Z,17.10
2019-02-11T17:10:13.028Z,19.60
2019-02-11T17:12:42.140Z,22.35
2019-02-11T17:15:13.096Z,16.95
2019-02-11T17:17:42.108Z,14.40
2019-02-11T17:20:14.412Z,13.20
2019-02-11T17:22:43.416Z,19.15
2019-02-11T17:25:12.434Z,22.90
2019-02-11T17:27:41.455Z,15.40
2019-02-11T17:30:16.469Z,18.35
2019-02-11T17:32:45.575Z,18.07
2019-02-11T17:35:14.754Z,18.05
2019-02-11T17:37:43.849Z,17.07
2019-02-11T17:40:13.385Z,19.62
2019-02-11T17:42:42.547Z,20.08
2019-02-11T17:45:23.125Z,18.87
2019-02-11T17:47:52.115Z,15.70
2019-02-11T17:50:21.151Z,19.87
2019-02-11T17:52:50.982Z,17.45
2019-02-11T17:55:20.292Z,22.93
2019-02-11T17:57:49.311Z,16.37
2019-02-11T18:00:27.402Z,14.43
2019-02-11T18:02:56.520Z,15.58
2019-02-11T18:05:25.547Z,19.10
2019-02-11T18:07:54.592Z,17.87
2019-02-11T18:10:23.731Z,17.87
2019-02-11T18:12:52.786Z,15.85
2019-02-11T18:15:21.792Z,12.63
2019-02-11T18:17:52.075Z,17.73
2019-02-11T18:20:21.192Z,13.70
2019-02-11T18:22:50.322Z,15.53
2019-02-11T18:25:19.371Z,18.42
2019-02-11T18:27:48.410Z,20.80
2019-02-11T18:30:18.882Z,15.03
2019-02-11T18:32:48.284Z,12.23
2019-02-11T18:35:17.378Z,14.30
2019-02-11T18:37:46.385Z,11.18
2019-02-11T18:40:15.489Z,12.50
2019-02-11T18:42:44.537Z,17.27
2019-02-11T18:45:15.670Z,20.17
2019-02-11T18:47:44.682Z,12.50
2019-02-11T18:50:14.123Z,17.48
2019-02-11T18:52:43.169Z,17.85
2019-02-11T18:55:12.814Z,15.72
2019-02-11T18:57:41.840Z,10.20
2019-02-11T19:00:12.967Z,13.85
2019-02-11T19:02:42.085Z,11.25
2019-02-11T19:05:11.091Z,11.08
2019-02-11T19:07:40.222Z,9.90
2019-02-11T19:10:10.367Z,11.65
2019-02-11T19:12:39.440Z,13.05
2019-02-11T19:15:09.817Z,12.73
2019-02-11T19:17:38.856Z,15.88
2019-02-11T19:20:08.893Z,14.63
2019-02-11T19:22:37.959Z,11.25
2019-02-11T19:25:08.034Z,15.20
2019-02-11T19:27:37.116Z,14.55
2019-02-11T19:30:08.270Z,10.15
2019-02-11T19:32:37.598Z,16.42
2019-02-11T19:35:06.708Z,11.05
2019-02-11T19:37:35.901Z,10.25
2019-02-11T19:40:05.486Z,13.58
2019-02-11T19:42:34.687Z,13.22
2019-02-11T19:45:04.096Z,15.98
2019-02-11T19:47:33.322Z,9.93
2019-02-11T19:50:02.715Z,13.93
2019-02-11T19:52:32.663Z,18.55
2019-02-11T19:55:02.170Z,14.53
2019-02-11T19:57:31.561Z,17.35
2019-02-11T20:00:00.927Z,8.70
2019-02-11T20:02:30.187Z,9.05
2019-02-11T20:04:59.360Z,9.48
2019-02-11T20:07:28.571Z,11.93
2019-02-11T20:09:57.830Z,10.45
2019-02-11T20:12:27.719Z,12.43
2019-02-11T20:14:59.797Z,13.13
2019-02-11T20:17:28.969Z,10.18
2019-02-11T20:20:00.376Z,14.07
2019-02-11T20:22:28.799Z,16.50
2019-02-11T20:24:58.235Z,46.77
2019-02-11T20:27:27.925Z,17.48
2019-02-11T20:29:57.167Z,15.85
2019-02-11T20:32:26.389Z,21.23
2019-02-11T20:34:55.760Z,33.18
2019-02-11T20:37:24.859Z,17.02
2019-02-11T20:39:54.119Z,27.65
2019-02-11T20:42:23.389Z,24.75
2019-02-11T20:44:52.611Z,24.92
2019-02-11T20:47:21.768Z,18.80
2019-02-11T20:49:50.839Z,30.17
2019-02-11T20:52:19.908Z,26.33
2019-02-11T20:54:49.222Z,22.90
2019-02-11T20:57:18.358Z,10.82
2019-02-11T20:59:47.446Z,10.28
2019-02-11T21:02:16.461Z,10.68
2019-02-11T21:04:45.483Z,15.30
2019-02-11T21:07:14.649Z,13.05
2019-02-11T21:09:43.746Z,11.63
2019-02-11T21:12:12.734Z,13.58
2019-02-11T21:14:41.785Z,13.13
2019-02-11T21:17:10.806Z,10.72
2019-02-11T21:19:39.894Z,9.48
2019-02-11T21:22:09.355Z,14.15
2019-02-11T21:24:38.401Z,19.02
2019-02-11T21:27:07.555Z,12.53
2019-02-11T21:29:36.568Z,11.88
2019-02-11T21:32:05.568Z,14.07
2019-02-11T21:34:34.587Z,12.03
2019-02-11T21:37:03.700Z,15.32
2019-02-11T21:39:32.801Z,11.45
2019-02-11T21:42:01.825Z,9.13
2019-02-11T21:44:30.808Z,8.88
2019-02-11T21:46:59.836Z,14.43
2019-02-11T21:49:28.912Z,9.28
2019-02-11T21:51:57.987Z,15.05
2019-02-11T21:54:27.000Z,13.13
2019-02-11T21:56:56.018Z,14.93
2019-02-11T21:59:25.001Z,14.40
2019-02-11T22:01:54.040Z,11.65
2019-02-11T22:04:23.118Z,9.98
2019-02-11T22:06:52.113Z,9.40
2019-02-11T22:09:21.153Z,7.58
2019-02-11T22:11:50.421Z,10.00
2019-02-11T22:14:19.471Z,11.50
2019-02-11T22:16:48.445Z,10.03
2019-02-11T22:19:17.437Z,9.33
2019-02-11T22:21:46.509Z,13.30
2019-02-11T22:24:15.514Z,12.20
2019-02-11T22:26:44.494Z,9.43
2019-02-11T22:29:13.487Z,10.23
2019-02-11T22:31:42.477Z,7.53
2019-02-11T22:34:11.493Z,6.92
2019-02-11T22:36:40.493Z,11.53
2019-02-11T22:39:09.887Z,8.00
2019-02-11T22:41:38.891Z,9.03
2019-02-11T22:44:07.880Z,8.88
2019-02-11T22:46:36.858Z,11.33
2019-02-11T22:49:05.861Z,10.35
2019-02-11T22:51:35.574Z,10.85
2019-02-11T22:54:04.660Z,9.05
2019-02-11T22:56:33.660Z,10.03
2019-02-11T22:59:02.694Z,11.05
2019-02-11T23:01:31.704Z,9.80
2019-02-11T23:04:00.688Z,12.13
2019-02-11T23:06:29.670Z,7.72
2019-02-11T23:08:58.730Z,6.83
2019-02-11T23:11:27.696Z,8.85
2019-02-11T23:13:56.704Z,8.45
2019-02-11T23:16:25.708Z,6.37
2019-02-11T23:18:54.689Z,9.18
2019-02-11T23:21:23.674Z,7.03
2019-02-11T23:23:52.638Z,7.65
2019-02-11T23:26:21.897Z,6.50
2019-02-11T23:28:50.886Z,7.28
2019-02-11T23:31:19.879Z,12.53
2019-02-11T23:33:48.876Z,7.62
2019-02-11T23:36:17.915Z,5.58
2019-02-11T23:38:46.968Z,8.23
2019-02-11T23:41:15.929Z,8.30
2019-02-11T23:43:44.914Z,8.55
2019-02-11T23:46:13.938Z,13.40
2019-02-11T23:48:42.893Z,8.43
2019-02-11T23:51:11.892Z,5.22
2019-02-11T23:53:40.879Z,9.85
2019-02-11T23:56:09.845Z,12.18
2019-02-11T23:58:38.818Z,16.05
